Eira — OJJP — position and weather

sailwx.info

Track history (hours):
 
Tides and Currents Weather Stations Pressure Air Temp Water Temp Dewpoint Dewpoint Depression Visibility Wind Speed Wind Dir Waves Ship Positions

Eira

Last reported at 2014-Oct-30 23:33 UTC. Time now 2014-Oct-30 23:45 UTC.
Position N 54°29' E 012°11'.

Length 157 m; draft 8.5 m.

Type: Cargo ship. MMSI: 230935000.

Date/timePositionNaut miles runAvg speedWind from/ knotsBaromVisibWave heightAir tempDewpointWater temp
2014-Oct-30 23:33N 54°29' E 012°11'1210.0
2014-Oct-30 22:20N 54°40' E 012°23'1110.7
2014-Oct-30 21:19N 54°45' E 012°39'6010.4
2014-Oct-30 15:33N 55°09' E 014°14'1110.4
2014-Oct-30 14:31N 55°18' E 014°25'1010.4
2014-Oct-30 13:33N 55°26' E 014°37'1111.2
2014-Oct-30 12:33N 55°32' E 014°53'1511.9
2014-Oct-30 11:18N 55°40' E 015°16'3412.4
2014-Oct-30 08:33N 55°57' E 016°08'1212.4
2014-Oct-30 07:34N 56°03' E 016°27'6312.1
2014-Oct-30 02:23N 56°59' E 017°20'1112.3
2014-Oct-30 01:30N 57°09' E 017°27'1212.4
2014-Oct-30 00:34N 57°20' E 017°36'1412.7
2014-Oct-29 23:29N 57°32' E 017°46'  
2014-Oct-27 09:34N 59°35' E 021°19'5 4.9
2014-Oct-27 08:34N 59°35' E 021°29'5 5.1
2014-Oct-27 07:33N 59°35' E 021°39'5 5.4
2014-Oct-27 06:33N 59°35' E 021°50'50 8.3
2014-Oct-27 00:32N 59°41' E 023°28'1010.5
2014-Oct-26 23:33N 59°45' E 023°47'1110.6
2014-Oct-26 22:31N 59°50' E 024°06'8 5.9
2014-Oct-26 21:14N 59°58' E 024°06'6 8.5
2014-Oct-26 20:31N 60°01' E 023°55'0 0.0
2014-Oct-26 06:24N 60°01' E 023°55'3 0.1
2014-Oct-25 02:21N 59°60' E 024°00'70 8.8
2014-Oct-24 18:21N 59°60' E 026°21'8 9.7
2014-Oct-24 17:30N 60°02' E 026°37'9 9.4
2014-Oct-24 16:33N 60°00' E 026°54'5 0.1
2014-Oct-23 01:27N 59°58' E 027°04'1112.1
2014-Oct-23 00:32N 59°59' E 026°42'1212.0
2014-Oct-22 23:30N 59°57' E 026°18'5411.0
2014-Oct-22 18:33N 59°45' E 024°32'1410.5
2014-Oct-22 17:13N 59°42' E 024°05'810.8
2014-Oct-22 16:29N 59°40' E 023°50'1010.7
2014-Oct-22 15:32N 59°38' E 023°30'1110.9
2014-Oct-22 14:30N 59°38' E 023°08'3510.6
2014-Oct-22 11:14N 59°35' E 021°60'910.3
2014-Oct-22 10:22N 59°34' E 021°42'810.1
2014-Oct-22 09:33N 59°35' E 021°26'  
Track history (hours):
 
Tides and Currents Weather Stations Pressure Air Temp Water Temp Dewpoint Dewpoint Depression Visibility Wind Speed Wind Dir Waves Ship Positions

Eira

Last reported at 2014-Oct-30 23:33 UTC. Time now 2014-Oct-30 23:45 UTC.
Position N 54°29' E 012°11'.

Length 157 m; draft 8.5 m.

Type: Cargo ship. MMSI: 230935000.

Date/timePositionNaut miles runAvg speedWind from/ knotsBaromVisibWave heightAir tempDewpointWater temp
2014-Oct-30 23:33N 54°29' E 012°11'1210.0
2014-Oct-30 22:20N 54°40' E 012°23'1110.7
2014-Oct-30 21:19N 54°45' E 012°39'6010.4
2014-Oct-30 15:33N 55°09' E 014°14'1110.4
2014-Oct-30 14:31N 55°18' E 014°25'1010.4
2014-Oct-30 13:33N 55°26' E 014°37'1111.2
2014-Oct-30 12:33N 55°32' E 014°53'1511.9
2014-Oct-30 11:18N 55°40' E 015°16'3412.4
2014-Oct-30 08:33N 55°57' E 016°08'1212.4
2014-Oct-30 07:34N 56°03' E 016°27'6312.1
2014-Oct-30 02:23N 56°59' E 017°20'1112.3
2014-Oct-30 01:30N 57°09' E 017°27'1212.4
2014-Oct-30 00:34N 57°20' E 017°36'1412.7
2014-Oct-29 23:29N 57°32' E 017°46'  
2014-Oct-27 09:34N 59°35' E 021°19'5 4.9
2014-Oct-27 08:34N 59°35' E 021°29'5 5.1
2014-Oct-27 07:33N 59°35' E 021°39'5 5.4
2014-Oct-27 06:33N 59°35' E 021°50'50 8.3
2014-Oct-27 00:32N 59°41' E 023°28'1010.5
2014-Oct-26 23:33N 59°45' E 023°47'1110.6
2014-Oct-26 22:31N 59°50' E 024°06'8 5.9
2014-Oct-26 21:14N 59°58' E 024°06'6 8.5
2014-Oct-26 20:31N 60°01' E 023°55'0 0.0
2014-Oct-26 06:24N 60°01' E 023°55'3 0.1
2014-Oct-25 02:21N 59°60' E 024°00'70 8.8
2014-Oct-24 18:21N 59°60' E 026°21'8 9.7
2014-Oct-24 17:30N 60°02' E 026°37'9 9.4
2014-Oct-24 16:33N 60°00' E 026°54'5 0.1
2014-Oct-23 01:27N 59°58' E 027°04'1112.1
2014-Oct-23 00:32N 59°59' E 026°42'1212.0
2014-Oct-22 23:30N 59°57' E 026°18'5411.0
2014-Oct-22 18:33N 59°45' E 024°32'1410.5
2014-Oct-22 17:13N 59°42' E 024°05'810.8
2014-Oct-22 16:29N 59°40' E 023°50'1010.7
2014-Oct-22 15:32N 59°38' E 023°30'1110.9
2014-Oct-22 14:30N 59°38' E 023°08'3510.6
2014-Oct-22 11:14N 59°35' E 021°60'910.3
2014-Oct-22 10:22N 59°34' E 021°42'810.1
2014-Oct-22 09:33N 59°35' E 021°26'  

Dump ship's entire track history